sensor_id;sensor_type;location;lat;lon;timestamp;pressure;altitude;pressure_sealevel;temperature;humidity
71239;BME280;61342;51.442;7.370;2023-03-30T00:00:37;99202.22;;;14.93;74.68
71239;BME280;61342;51.442;7.370;2023-03-30T00:01:37;99204.31;;;14.93;74.53
71239;BME280;61342;51.442;7.370;2023-03-30T00:02:38;99211.66;;;14.94;74.58
71239;BME280;61342;51.442;7.370;2023-03-30T00:03:44;99211.50;;;14.92;74.51
71239;BME280;61342;51.442;7.370;2023-03-30T00:04:45;99215.34;;;14.94;74.46
71239;BME280;61342;51.442;7.370;2023-03-30T00:05:45;99208.78;;;14.94;74.54
71239;BME280;61342;51.442;7.370;2023-03-30T00:06:45;99208.59;;;14.92;74.47
71239;BME280;61342;51.442;7.370;2023-03-30T00:07:47;99206.66;;;14.94;74.20
71239;BME280;61342;51.442;7.370;2023-03-30T00:08:52;99208.78;;;14.94;74.35
71239;BME280;61342;51.442;7.370;2023-03-30T00:09:56;99205.88;;;14.94;74.27
71239;BME280;61342;51.442;7.370;2023-03-30T00:11:02;99204.91;;;14.91;74.27
71239;BME280;61342;51.442;7.370;2023-03-30T00:12:03;99208.78;;;14.94;74.55
71239;BME280;61342;51.442;7.370;2023-03-30T00:13:04;99196.81;;;14.90;73.90
71239;BME280;61342;51.442;7.370;2023-03-30T00:14:05;99204.16;;;14.91;74.05
71239;BME280;61342;51.442;7.370;2023-03-30T00:15:15;99194.13;;;14.92;74.01
71239;BME280;61342;51.442;7.370;2023-03-30T00:16:17;99194.13;;;14.92;74.03
71239;BME280;61342;51.442;7.370;2023-03-30T00:17:17;99191.22;;;14.92;74.33
71239;BME280;61342;51.442;7.370;2023-03-30T00:18:17;99189.50;;;14.89;73.94
71239;BME280;61342;51.442;7.370;2023-03-30T00:19:18;99186.03;;;14.90;73.69
71239;BME280;61342;51.442;7.370;2023-03-30T00:20:19;99174.25;;;14.88;73.73
71239;BME280;61342;51.442;7.370;2023-03-30T00:21:19;99173.66;;;14.90;73.76
71239;BME280;61342;51.442;7.370;2023-03-30T00:22:20;99185.06;;;14.88;73.38
71239;BME280;61342;51.442;7.370;2023-03-30T00:23:21;99182.34;;;14.90;73.44
71239;BME280;61342;51.442;7.370;2023-03-30T00:24:21;99174.25;;;14.88;73.47
71239;BME280;61342;51.442;7.370;2023-03-30T00:25:22;99178.13;;;14.91;73.23
71239;BME280;61342;51.442;7.370;2023-03-30T00:26:22;99168.47;;;14.88;73.70
71239;BME280;61342;51.442;7.370;2023-03-30T00:27:23;99163.44;;;14.89;73.53
71239;BME280;61342;51.442;7.370;2023-03-30T00:28:23;99165.94;;;14.92;73.15
71239;BME280;61342;51.442;7.370;2023-03-30T00:29:25;99179.66;;;14.92;73.40
71239;BME280;61342;51.442;7.370;2023-03-30T00:30:25;99175.22;;;14.91;72.99
71239;BME280;61342;51.442;7.370;2023-03-30T00:31:25;99177.34;;;14.90;73.10
71239;BME280;61342;51.442;7.370;2023-03-30T00:32:26;99181.19;;;14.93;73.16
71239;BME280;61342;51.442;7.370;2023-03-30T00:33:26;99178.28;;;14.93;72.89
71239;BME280;61342;51.442;7.370;2023-03-30T00:34:27;99171.97;;;14.87;72.80
71239;BME280;61342;51.442;7.370;2023-03-30T00:35:28;99171.16;;;14.94;72.72
71239;BME280;61342;51.442;7.370;2023-03-30T00:36:29;99161.50;;;14.91;73.12
71239;BME280;61342;51.442;7.370;2023-03-30T00:37:30;99169.03;;;14.94;72.85
71239;BME280;61342;51.442;7.370;2023-03-30T00:38:31;99161.13;;;14.95;72.98
71239;BME280;61342;51.442;7.370;2023-03-30T00:39:31;99156.69;;;14.94;72.91
71239;BME280;61342;51.442;7.370;2023-03-30T00:40:33;99153.97;;;14.96;72.63
71239;BME280;61342;51.442;7.370;2023-03-30T00:41:36;99156.88;;;14.96;72.37
71239;BME280;61342;51.442;7.370;2023-03-30T00:42:37;99157.03;;;14.98;72.95
71239;BME280;61342;51.442;7.370;2023-03-30T00:43:54;99164.59;;;14.93;72.17
71239;BME280;61342;51.442;7.370;2023-03-30T00:46:15;99159.56;;;14.94;72.34
71239;BME280;61342;51.442;7.370;2023-03-30T00:47:15;99152.03;;;14.98;72.43
71239;BME280;61342;51.442;7.370;2023-03-30T00:48:24;99159.94;;;14.98;72.46
71239;BME280;61342;51.442;7.370;2023-03-30T00:49:27;99152.22;;;14.93;72.33
71239;BME280;61342;51.442;7.370;2023-03-30T00:50:34;99170.16;;;14.98;71.82
71239;BME280;61342;51.442;7.370;2023-03-30T00:51:39;99157.81;;;14.98;71.59
71239;BME280;61342;51.442;7.370;2023-03-30T00:52:42;99149.91;;;14.98;71.88
71239;BME280;61342;51.442;7.370;2023-03-30T00:53:46;99155.09;;;15.00;71.87
71239;BME280;61342;51.442;7.370;2023-03-30T00:54:47;99140.63;;;15.00;71.56
71239;BME280;61342;51.442;7.370;2023-03-30T00:55:48;99146.63;;;15.02;71.43
71239;BME280;61342;51.442;7.370;2023-03-30T00:56:50;99143.91;;;14.97;71.31
71239;BME280;61342;51.442;7.370;2023-03-30T00:57:50;99145.06;;;15.01;71.64
71239;BME280;61342;51.442;7.370;2023-03-30T00:58:52;99133.13;;;14.97;71.69
71239;BME280;61342;51.442;7.370;2023-03-30T00:59:54;99138.69;;;15.02;71.56
71239;BME280;61342;51.442;7.370;2023-03-30T01:00:56;99147.38;;;15.02;71.66
71239;BME280;61342;51.442;7.370;2023-03-30T01:01:57;99137.16;;;15.01;71.08
71239;BME280;61342;51.442;7.370;2023-03-30T01:03:00;99142.94;;;15.01;71.51
71239;BME280;61342;51.442;7.370;2023-03-30T01:04:02;99146.03;;;15.03;71.21
71239;BME280;61342;51.442;7.370;2023-03-30T01:05:04;99140.22;;;15.03;71.22
71239;BME280;61342;51.442;7.370;2023-03-30T01:06:06;99128.66;;;15.03;71.11
71239;BME280;61342;51.442;7.370;2023-03-30T01:07:07;99133.09;;;15.04;70.92
71239;BME280;61342;51.442;7.370;2023-03-30T01:08:12;99127.88;;;15.03;71.32
71239;BME280;61342;51.442;7.370;2023-03-30T01:09:16;99116.28;;;15.03;70.54
71239;BME280;61342;51.442;7.370;2023-03-30T01:10:17;99115.72;;;15.04;70.59
71239;BME280;61342;51.442;7.370;2023-03-30T01:11:18;99111.09;;;15.01;70.75
71239;BME280;61342;51.442;7.370;2023-03-30T01:12:19;99114.41;;;14.98;71.02
71239;BME280;61342;51.442;7.370;2023-03-30T01:13:19;99114.19;;;15.03;70.74
71239;BME280;61342;51.442;7.370;2023-03-30T01:14:20;99118.44;;;15.02;70.61
71239;BME280;61342;51.442;7.370;2023-03-30T01:15:21;99117.84;;;15.04;70.55
71239;BME280;61342;51.442;7.370;2023-03-30T01:20:05;99109.53;;;15.00;70.28
71239;BME280;61342;51.442;7.370;2023-03-30T01:23:18;99110.94;;;14.99;70.78
71239;BME280;61342;51.442;7.370;2023-03-30T01:24:47;99098.56;;;14.99;70.47
71239;BME280;61342;51.442;7.370;2023-03-30T01:26:43;99097.81;;;14.98;70.43
71239;BME280;61342;51.442;7.370;2023-03-30T01:28:51;99101.28;;;14.97;70.63
71239;BME280;61342;51.442;7.370;2023-03-30T01:33:04;99107.47;;;14.94;70.49
71239;BME280;61342;51.442;7.370;2023-03-30T01:34:40;99109.03;;;14.95;70.44
71239;BME280;61342;51.442;7.370;2023-03-30T01:39:09;99094.56;;;14.95;70.28
71239;BME280;61342;51.442;7.370;2023-03-30T01:40:19;99095.50;;;14.97;70.44
71239;BME280;61342;51.442;7.370;2023-03-30T01:44:35;99094.72;;;14.97;70.49
71239;BME280;61342;51.442;7.370;2023-03-30T01:46:00;99099.16;;;14.98;70.28
71239;BME280;61342;51.442;7.370;2023-03-30T01:47:11;99099.50;;;15.01;70.18
71239;BME280;61342;51.442;7.370;2023-03-30T01:48:29;99093.72;;;15.01;70.16
71239;BME280;61342;51.442;7.370;2023-03-30T01:49:42;99097.41;;;15.02;70.06
71239;BME280;61342;51.442;7.370;2023-03-30T01:51:07;99096.81;;;15.03;69.53
71239;BME280;61342;51.442;7.370;2023-03-30T01:53:29;99098.53;;;15.06;69.13
71239;BME280;61342;51.442;7.370;2023-03-30T01:54:36;99101.78;;;15.10;69.45
71239;BME280;61342;51.442;7.370;2023-03-30T01:55:52;99110.66;;;15.12;69.08
71239;BME280;61342;51.442;7.370;2023-03-30T01:57:00;99106.38;;;15.13;68.87
71239;BME280;61342;51.442;7.370;2023-03-30T01:58:13;99102.34;;;15.16;68.90
71239;BME280;61342;51.442;7.370;2023-03-30T01:59:19;99098.25;;;15.19;68.87
71239;BME280;61342;51.442;7.370;2023-03-30T02:00:22;99080.88;;;15.19;68.77
71239;BME280;61342;51.442;7.370;2023-03-30T02:01:26;99101.53;;;15.23;68.83
71239;BME280;61342;51.442;7.370;2023-03-30T02:02:29;99093.00;;;15.25;68.43
71239;BME280;61342;51.442;7.370;2023-03-30T02:03:33;99094.75;;;15.28;68.14
71239;BME280;61342;51.442;7.370;2023-03-30T02:04:38;99099.00;;;15.27;67.98
71239;BME280;61342;51.442;7.370;2023-03-30T02:05:41;99107.44;;;15.33;67.99
71239;BME280;61342;51.442;7.370;2023-03-30T02:06:47;99106.84;;;15.34;67.72
71239;BME280;61342;51.442;7.370;2023-03-30T02:08:00;99099.69;;;15.35;67.59
71239;BME280;61342;51.442;7.370;2023-03-30T02:09:04;99093.31;;;15.37;67.64
71239;BME280;61342;51.442;7.370;2023-03-30T02:10:09;99102.94;;;15.39;67.57
71239;BME280;61342;51.442;7.370;2023-03-30T02:11:11;99102.94;;;15.39;67.68
71239;BME280;61342;51.442;7.370;2023-03-30T02:12:12;99102.53;;;15.43;67.27
71239;BME280;61342;51.442;7.370;2023-03-30T02:13:14;99103.66;;;15.47;67.21
71239;BME280;61342;51.442;7.370;2023-03-30T02:14:16;99097.88;;;15.47;67.05
71239;BME280;61342;51.442;7.370;2023-03-30T02:15:18;99104.25;;;15.46;67.33
71239;BME280;61342;51.442;7.370;2023-03-30T02:16:23;99099.41;;;15.48;66.92
71239;BME280;61342;51.442;7.370;2023-03-30T02:17:29;99105.56;;;15.52;67.01
71239;BME280;61342;51.442;7.370;2023-03-30T02:18:30;99095.50;;;15.53;66.85
71239;BME280;61342;51.442;7.370;2023-03-30T02:19:30;99097.22;;;15.56;66.56
71239;BME280;61342;51.442;7.370;2023-03-30T02:20:31;99092.97;;;15.57;66.27
71239;BME280;61342;51.442;7.370;2023-03-30T02:21:32;99085.03;;;15.57;66.20
71239;BME280;61342;51.442;7.370;2023-03-30T02:22:34;99088.88;;;15.60;66.22
71239;BME280;61342;51.442;7.370;2023-03-30T02:23:38;99093.47;;;15.63;66.19
71239;BME280;61342;51.442;7.370;2023-03-30T02:24:41;99087.69;;;15.63;66.06
71239;BME280;61342;51.442;7.370;2023-03-30T02:25:42;99079.94;;;15.65;66.19
71239;BME280;61342;51.442;7.370;2023-03-30T02:26:45;99083.78;;;15.68;66.08
71239;BME280;61342;51.442;7.370;2023-03-30T02:27:47;99073.72;;;15.69;65.80
71239;BME280;61342;51.442;7.370;2023-03-30T02:28:49;99079.88;;;15.73;65.92
71239;BME280;61342;51.442;7.370;2023-03-30T02:29:50;99082.94;;;15.75;65.59
71239;BME280;61342;51.442;7.370;2023-03-30T02:30:51;99066.31;;;15.75;65.89
71239;BME280;61342;51.442;7.370;2023-03-30T02:31:53;99073.81;;;15.78;65.78
71239;BME280;61342;51.442;7.370;2023-03-30T02:32:55;99073.22;;;15.80;65.54
71239;BME280;61342;51.442;7.370;2023-03-30T02:39:22;99069.31;;;15.85;65.45
71239;BME280;61342;51.442;7.370;2023-03-30T02:45:01;99062.13;;;15.86;65.67
71239;BME280;61342;51.442;7.370;2023-03-30T02:46:18;99051.47;;;15.88;65.24
71239;BME280;61342;51.442;7.370;2023-03-30T02:47:30;99054.97;;;15.87;65.35
71239;BME280;61342;51.442;7.370;2023-03-30T02:48:58;99044.00;;;15.85;65.34
71239;BME280;61342;51.442;7.370;2023-03-30T02:50:08;99053.81;;;15.90;65.18
71239;BME280;61342;51.442;7.370;2023-03-30T02:52:41;99037.94;;;15.91;65.19
71239;BME280;61342;51.442;7.370;2023-03-30T02:53:58;99037.34;;;15.92;64.82
71239;BME280;61342;51.442;7.370;2023-03-30T02:55:15;99037.94;;;15.91;65.01
71239;BME280;61342;51.442;7.370;2023-03-30T02:56:55;99035.03;;;15.91;65.06
71239;BME280;61342;51.442;7.370;2023-03-30T02:58:15;99022.84;;;15.92;65.25
71239;BME280;61342;51.442;7.370;2023-03-30T02:59:59;99016.28;;;15.92;64.92
71239;BME280;61342;51.442;7.370;2023-03-30T03:01:13;99024.22;;;15.91;65.29
71239;BME280;61342;51.442;7.370;2023-03-30T03:02:18;99018.59;;;15.93;64.88
71239;BME280;61342;51.442;7.370;2023-03-30T03:03:26;99009.28;;;15.95;65.47
71239;BME280;61342;51.442;7.370;2023-03-30T03:04:30;99022.59;;;15.98;65.54
71239;BME280;61342;51.442;7.370;2023-03-30T03:05:33;99012.38;;;15.97;65.17
71239;BME280;61342;51.442;7.370;2023-03-30T03:06:35;99018.31;;;15.99;65.18
71239;BME280;61342;51.442;7.370;2023-03-30T03:07:37;99016.97;;;16.00;65.28
71239;BME280;61342;51.442;7.370;2023-03-30T03:08:39;99014.66;;;15.98;65.34
71239;BME280;61342;51.442;7.370;2023-03-30T03:09:41;99009.81;;;16.01;64.99
71239;BME280;61342;51.442;7.370;2023-03-30T03:10:41;99006.72;;;15.99;65.09
71239;BME280;61342;51.442;7.370;2023-03-30T03:11:42;99002.47;;;16.00;64.93
71239;BME280;61342;51.442;7.370;2023-03-30T03:12:43;99006.91;;;16.01;65.10
71239;BME280;61342;51.442;7.370;2023-03-30T03:13:44;99003.06;;;15.98;64.76
71239;BME280;61342;51.442;7.370;2023-03-30T03:14:44;99015.59;;;16.01;64.71
71239;BME280;61342;51.442;7.370;2023-03-30T03:15:45;99008.47;;;16.02;65.12
71239;BME280;61342;51.442;7.370;2023-03-30T03:16:46;99014.06;;;16.00;64.73
71239;BME280;61342;51.442;7.370;2023-03-30T03:17:47;99014.25;;;16.02;65.07
71239;BME280;61342;51.442;7.370;2023-03-30T03:18:47;99012.09;;;16.02;65.09
71239;BME280;61342;51.442;7.370;2023-03-30T03:19:48;99015.00;;;16.02;64.70
71239;BME280;61342;51.442;7.370;2023-03-30T03:20:49;99007.66;;;16.01;64.95
71239;BME280;61342;51.442;7.370;2023-03-30T03:21:50;99020.06;;;16.02;65.13
71239;BME280;61342;51.442;7.370;2023-03-30T03:22:50;99015.00;;;16.02;64.80
71239;BME280;61342;51.442;7.370;2023-03-30T03:23:51;99015.75;;;16.03;64.86
71239;BME280;61342;51.442;7.370;2023-03-30T03:24:51;99010.56;;;16.01;65.20
71239;BME280;61342;51.442;7.370;2023-03-30T03:25:52;99004.94;;;16.03;64.77
71239;BME280;61342;51.442;7.370;2023-03-30T03:26:52;99002.06;;;16.03;64.91
71239;BME280;61342;51.442;7.370;2023-03-30T03:27:52;99001.88;;;16.01;64.94
71239;BME280;61342;51.442;7.370;2023-03-30T03:28:53;99008.78;;;16.06;64.98
71239;BME280;61342;51.442;7.370;2023-03-30T03:29:53;99015.34;;;16.06;64.87
71239;BME280;61342;51.442;7.370;2023-03-30T03:30:54;99009.53;;;16.06;65.26
71239;BME280;61342;51.442;7.370;2023-03-30T03:31:54;99011.69;;;16.06;65.10
71239;BME280;61342;51.442;7.370;2023-03-30T03:32:54;99012.44;;;16.06;64.81
71239;BME280;61342;51.442;7.370;2023-03-30T03:33:56;98997.19;;;16.06;65.20
71239;BME280;61342;51.442;7.370;2023-03-30T03:34:56;99014.59;;;16.06;65.04
71239;BME280;61342;51.442;7.370;2023-03-30T03:35:57;99010.31;;;16.07;64.91
71239;BME280;61342;51.442;7.370;2023-03-30T03:36:58;99011.09;;;16.07;65.06
71239;BME280;61342;51.442;7.370;2023-03-30T03:37:59;99029.84;;;16.06;65.23
71239;BME280;61342;51.442;7.370;2023-03-30T03:38:59;99023.09;;;16.04;65.09
71239;BME280;61342;51.442;7.370;2023-03-30T03:39:59;99021.91;;;16.07;64.83
71239;BME280;61342;51.442;7.370;2023-03-30T03:41:00;99019.19;;;16.09;65.14
71239;BME280;61342;51.442;7.370;2023-03-30T03:42:00;99035.03;;;16.08;65.00
71239;BME280;61342;51.442;7.370;2023-03-30T03:43:00;99024.66;;;16.05;64.84
71239;BME280;61342;51.442;7.370;2023-03-30T03:44:01;99008.13;;;15.98;65.22
71239;BME280;61342;51.442;7.370;2023-03-30T03:45:02;99019.19;;;16.09;65.23
71239;BME280;61342;51.442;7.370;2023-03-30T03:46:03;99028.63;;;16.09;64.85
71239;BME280;61342;51.442;7.370;2023-03-30T03:47:03;99028.22;;;16.13;65.02
71239;BME280;61342;51.442;7.370;2023-03-30T03:48:03;99026.69;;;16.12;64.91
71239;BME280;61342;51.442;7.370;2023-03-30T03:49:04;99032.47;;;16.12;65.10
71239;BME280;61342;51.442;7.370;2023-03-30T03:50:05;99026.69;;;16.12;65.10
71239;BME280;61342;51.442;7.370;2023-03-30T03:51:08;99027.63;;;16.14;64.98
71239;BME280;61342;51.442;7.370;2023-03-30T03:52:10;99032.06;;;16.15;65.13
71239;BME280;61342;51.442;7.370;2023-03-30T03:53:11;99035.72;;;16.15;65.05
71239;BME280;61342;51.442;7.370;2023-03-30T03:54:12;99031.13;;;16.13;65.19
71239;BME280;61342;51.442;7.370;2023-03-30T03:55:12;99020.63;;;16.17;64.89
71239;BME280;61342;51.442;7.370;2023-03-30T03:56:13;99007.75;;;16.11;65.06
71239;BME280;61342;51.442;7.370;2023-03-30T03:57:13;99027.19;;;16.17;64.80
71239;BME280;61342;51.442;7.370;2023-03-30T03:58:15;99024.31;;;16.17;64.83
71239;BME280;61342;51.442;7.370;2023-03-30T03:59:15;99020.00;;;16.18;64.85
71239;BME280;61342;51.442;7.370;2023-03-30T04:00:16;99009.94;;;16.19;64.69
71239;BME280;61342;51.442;7.370;2023-03-30T04:01:16;98999.72;;;16.18;64.79
71239;BME280;61342;51.442;7.370;2023-03-30T04:02:17;98992.22;;;16.15;64.99
71239;BME280;61342;51.442;7.370;2023-03-30T04:03:18;99002.03;;;16.20;64.63
71239;BME280;61342;51.442;7.370;2023-03-30T04:04:18;99002.38;;;16.24;64.57
71239;BME280;61342;51.442;7.370;2023-03-30T04:05:18;99003.13;;;16.24;64.87
71239;BME280;61342;51.442;7.370;2023-03-30T04:06:19;98998.13;;;16.25;64.81
71239;BME280;61342;51.442;7.370;2023-03-30T04:07:19;98996.75;;;16.26;65.09
71239;BME280;61342;51.442;7.370;2023-03-30T04:08:20;98995.41;;;16.27;64.64
71239;BME280;61342;51.442;7.370;2023-03-30T04:09:21;99001.19;;;16.27;64.95
71239;BME280;61342;51.442;7.370;2023-03-30T04:10:22;98990.34;;;16.27;64.70
71239;BME280;61342;51.442;7.370;2023-03-30T04:11:23;98986.50;;;16.25;65.09
71239;BME280;61342;51.442;7.370;2023-03-30T04:12:23;98998.44;;;16.29;64.86
71239;BME280;61342;51.442;7.370;2023-03-30T04:13:23;98994.59;;;16.26;64.90
71239;BME280;61342;51.442;7.370;2023-03-30T04:14:24;98993.25;;;16.27;64.99
71239;BME280;61342;51.442;7.370;2023-03-30T04:15:24;98999.84;;;16.28;64.57
71239;BME280;61342;51.442;7.370;2023-03-30T04:16:25;98999.22;;;16.29;65.20
71239;BME280;61342;51.442;7.370;2023-03-30T04:17:25;99010.66;;;16.27;65.03
71239;BME280;61342;51.442;7.370;2023-03-30T04:18:29;99009.28;;;16.28;64.83
71239;BME280;61342;51.442;7.370;2023-03-30T04:19:32;99010.84;;;16.29;64.65
71239;BME280;61342;51.442;7.370;2023-03-30T04:20:32;99012.94;;;16.29;65.27
71239;BME280;61342;51.442;7.370;2023-03-30T04:21:33;99008.19;;;16.24;64.80
71239;BME280;61342;51.442;7.370;2023-03-30T04:22:34;99005.63;;;16.28;65.22
71239;BME280;61342;51.442;7.370;2023-03-30T04:23:40;99003.50;;;16.28;65.12
71239;BME280;61342;51.442;7.370;2023-03-30T04:24:44;98999.22;;;16.29;64.99
71239;BME280;61342;51.442;7.370;2023-03-30T04:25:45;98983.19;;;16.28;64.92
71239;BME280;61342;51.442;7.370;2023-03-30T04:26:45;98984.56;;;16.27;65.08
71239;BME280;61342;51.442;7.370;2023-03-30T04:27:48;98975.25;;;16.29;64.94
71239;BME280;61342;51.442;7.370;2023-03-30T04:28:50;98987.63;;;16.29;64.85
71239;BME280;61342;51.442;7.370;2023-03-30T04:29:53;98976.03;;;16.29;65.15
71239;BME280;61342;51.442;7.370;2023-03-30T04:30:58;98986.28;;;16.30;65.03
71239;BME280;61342;51.442;7.370;2023-03-30T04:31:58;98994.19;;;16.30;65.21
71239;BME280;61342;51.442;7.370;2023-03-30T04:33:02;98987.03;;;16.31;64.76
71239;BME280;61342;51.442;7.370;2023-03-30T04:34:03;98981.50;;;16.25;64.90
71239;BME280;61342;51.442;7.370;2023-03-30T04:35:05;98986.44;;;16.32;65.04
71239;BME280;61342;51.442;7.370;2023-03-30T04:36:06;98971.41;;;16.26;64.92
71239;BME280;61342;51.442;7.370;2023-03-30T04:37:06;98982.16;;;16.33;65.25
71239;BME280;61342;51.442;7.370;2023-03-30T04:38:10;98968.59;;;16.36;65.06
71239;BME280;61342;51.442;7.370;2023-03-30T04:39:13;98968.59;;;16.36;65.16
71239;BME280;61342;51.442;7.370;2023-03-30T04:40:17;98964.91;;;16.35;65.19
71239;BME280;61342;51.442;7.370;2023-03-30T04:41:17;98963.22;;;16.32;65.26
71239;BME280;61342;51.442;7.370;2023-03-30T04:42:18;98972.25;;;16.36;64.97
71239;BME280;61342;51.442;7.370;2023-03-30T04:43:20;98975.16;;;16.36;64.94
71239;BME280;61342;51.442;7.370;2023-03-30T04:44:21;98970.09;;;16.37;65.26
71239;BME280;61342;51.442;7.370;2023-03-30T04:45:22;98961.88;;;16.33;65.18
71239;BME280;61342;51.442;7.370;2023-03-30T04:46:32;98970.91;;;16.37;65.34
71239;BME280;61342;51.442;7.370;2023-03-30T04:47:35;98958.97;;;16.33;65.13
71239;BME280;61342;51.442;7.370;2023-03-30T04:48:35;98954.84;;;16.36;65.21
71239;BME280;61342;51.442;7.370;2023-03-30T11:12:43;99180.31;;;15.14;84.08
71239;BME280;61342;51.442;7.370;2023-03-30T11:13:59;99177.38;;;15.54;83.06
71239;BME280;61342;51.442;7.370;2023-03-30T11:15:39;99182.56;;;16.04;82.27
71239;BME280;61342;51.442;7.370;2023-03-30T11:16:56;99183.50;;;16.64;80.60
71239;BME280;61342;51.442;7.370;2023-03-30T11:18:14;99174.88;;;17.17;79.05
71239;BME280;61342;51.442;7.370;2023-03-30T11:20:36;99182.88;;;18.14;75.10
71239;BME280;61342;51.442;7.370;2023-03-30T11:22:49;99177.78;;;18.69;71.31
71239;BME280;61342;51.442;7.370;2023-03-30T11:24:01;99180.09;;;18.89;70.48
71239;BME280;61342;51.442;7.370;2023-03-30T11:25:18;99171.81;;;19.05;69.23
71239;BME280;61342;51.442;7.370;2023-03-30T11:26:30;99177.03;;;19.25;67.79
71239;BME280;61342;51.442;7.370;2023-03-30T11:27:38;99179.75;;;19.42;67.29
71239;BME280;61342;51.442;7.370;2023-03-30T11:28:51;99175.09;;;19.58;66.05
71239;BME280;61342;51.442;7.370;2023-03-30T11:30:19;99170.72;;;19.77;65.37
71239;BME280;61342;51.442;7.370;2023-03-30T11:33:10;99176.44;;;20.15;64.44
71239;BME280;61342;51.442;7.370;2023-03-30T11:34:53;99174.84;;;20.24;63.14
71239;BME280;61342;51.442;7.370;2023-03-30T11:36:04;99196.75;;;20.34;62.58
71239;BME280;61342;51.442;7.370;2023-03-30T11:38:40;99186.81;;;20.48;61.82
71239;BME280;61342;51.442;7.370;2023-03-30T11:39:57;99187.03;;;20.62;61.33
71239;BME280;61342;51.442;7.370;2023-03-30T11:41:10;99175.25;;;20.81;61.21
71239;BME280;61342;51.442;7.370;2023-03-30T11:43:14;99177.69;;;21.16;59.96
71239;BME280;61342;51.442;7.370;2023-03-30T11:44:15;99169.09;;;21.30;59.41
71239;BME280;61342;51.442;7.370;2023-03-30T11:49:12;99165.28;;;21.82;57.97
71239;BME280;61342;51.442;7.370;2023-03-30T11:54:38;99151.16;;;22.24;55.02
71239;BME280;61342;51.442;7.370;2023-03-30T11:55:53;99170.44;;;22.27;55.34
71239;BME280;61342;51.442;7.370;2023-03-30T11:57:36;99170.16;;;22.23;55.47
71239;BME280;61342;51.442;7.370;2023-03-30T11:58:51;99166.47;;;22.23;54.62
71239;BME280;61342;51.442;7.370;2023-03-30T12:01:18;99176.66;;;22.10;54.66
71239;BME280;61342;51.442;7.370;2023-03-30T12:02:33;99149.28;;;21.95;54.53
71239;BME280;61342;51.442;7.370;2023-03-30T12:03:45;99157.91;;;21.81;54.76
71239;BME280;61342;51.442;7.370;2023-03-30T12:04:56;99162.59;;;21.63;54.28
71239;BME280;61342;51.442;7.370;2023-03-30T12:07:39;99151.28;;;21.26;55.24
71239;BME280;61342;51.442;7.370;2023-03-30T12:10:01;99156.28;;;21.02;55.25
71239;BME280;61342;51.442;7.370;2023-03-30T12:11:15;99162.97;;;20.93;55.52
71239;BME280;61342;51.442;7.370;2023-03-30T12:12:36;99154.78;;;20.81;55.92
71239;BME280;61342;51.442;7.370;2023-03-30T12:13:40;99164.66;;;20.76;55.75
71239;BME280;61342;51.442;7.370;2023-03-30T12:15:59;99164.78;;;20.57;56.09
71239;BME280;61342;51.442;7.370;2023-03-30T12:17:23;99163.53;;;20.39;55.96
71239;BME280;61342;51.442;7.370;2023-03-30T12:18:41;99165.03;;;20.19;56.46
71239;BME280;61342;51.442;7.370;2023-03-30T12:24:19;99163.97;;;19.75;58.31
71239;BME280;61342;51.442;7.370;2023-03-30T12:26:31;99157.97;;;19.82;58.67
71239;BME280;61342;51.442;7.370;2023-03-30T12:28:12;99156.44;;;19.81;58.99
71239;BME280;61342;51.442;7.370;2023-03-30T12:29:15;99146.59;;;19.86;58.24
71239;BME280;61342;51.442;7.370;2023-03-30T12:30:29;99135.25;;;19.81;58.31
71239;BME280;61342;51.442;7.370;2023-03-30T12:32:57;99144.63;;;19.79;58.14
71239;BME280;61342;51.442;7.370;2023-03-30T12:34:06;99137.41;;;19.80;57.65
71239;BME280;61342;51.442;7.370;2023-03-30T12:36:48;99127.41;;;19.83;58.15
71239;BME280;61342;51.442;7.370;2023-03-30T12:37:52;99138.94;;;19.81;57.64
71239;BME280;61342;51.442;7.370;2023-03-30T12:38:54;99147.56;;;19.79;58.08
71239;BME280;61342;51.442;7.370;2023-03-30T12:40:06;99143.44;;;19.73;57.55
71239;BME280;61342;51.442;7.370;2023-03-30T12:41:15;99132.56;;;19.64;58.30
71239;BME280;61342;51.442;7.370;2023-03-30T12:46:01;99123.47;;;19.30;57.98
71239;BME280;61342;51.442;7.370;2023-03-30T12:51:05;99167.22;;;18.73;59.19
71239;BME280;61342;51.442;7.370;2023-03-30T12:52:29;99160.63;;;18.54;60.04
71239;BME280;61342;51.442;7.370;2023-03-30T12:53:52;99190.78;;;18.40;60.14
71239;BME280;61342;51.442;7.370;2023-03-30T12:56:14;99187.94;;;18.13;60.97
71239;BME280;61342;51.442;7.370;2023-03-30T13:00:32;99202.78;;;17.72;61.65
71239;BME280;61342;51.442;7.370;2023-03-30T13:02:24;99202.34;;;17.49;61.75
71239;BME280;61342;51.442;7.370;2023-03-30T13:04:40;99193.94;;;17.27;63.77
71239;BME280;61342;51.442;7.370;2023-03-30T13:05:43;99204.25;;;17.21;64.22
71239;BME280;61342;51.442;7.370;2023-03-30T13:06:55;99206.34;;;17.11;65.00
71239;BME280;61342;51.442;7.370;2023-03-30T13:07:56;99210.69;;;17.02;65.97
71239;BME280;61342;51.442;7.370;2023-03-30T13:12:06;99199.56;;;16.65;68.86
71239;BME280;61342;51.442;7.370;2023-03-30T13:13:54;99203.72;;;16.55;69.85
71239;BME280;61342;51.442;7.370;2023-03-30T13:15:41;99206.28;;;16.51;70.69
71239;BME280;61342;51.442;7.370;2023-03-30T13:18:55;99208.47;;;16.26;72.62
71239;BME280;61342;51.442;7.370;2023-03-30T13:20:17;99216.28;;;16.16;73.01
71239;BME280;61342;51.442;7.370;2023-03-30T13:21:23;99225.41;;;16.13;73.31
71239;BME280;61342;51.442;7.370;2023-03-30T13:22:28;99220.44;;;16.06;73.95
71239;BME280;61342;51.442;7.370;2023-03-30T13:23:34;99218.94;;;15.97;74.25
71239;BME280;61342;51.442;7.370;2023-03-30T13:24:38;99222.28;;;15.94;74.69
71239;BME280;61342;51.442;7.370;2023-03-30T13:26:21;99221.97;;;15.82;75.43
71239;BME280;61342;51.442;7.370;2023-03-30T13:27:26;99227.06;;;15.74;75.94
71239;BME280;61342;51.442;7.370;2023-03-30T13:29:31;99237.56;;;15.62;76.30
71239;BME280;61342;51.442;7.370;2023-03-30T13:30:33;99222.97;;;15.53;77.25
71239;BME280;61342;51.442;7.370;2023-03-30T13:33:13;99231.94;;;15.40;78.37